createdAt,value
2023-02-11T00:02:11.885Z,100378.03
2023-02-11T00:04:44.593Z,100382.69
2023-02-11T00:07:16.485Z,100383.75
2023-02-11T00:09:49.480Z,100385.63
2023-02-11T00:12:21.691Z,100367.19
2023-02-11T00:14:54.400Z,100376.31
2023-02-11T00:17:26.350Z,100383.19
2023-02-11T00:19:59.447Z,100375.56
2023-02-11T00:22:31.389Z,100381.28
2023-02-11T00:25:05.129Z,100382.78
2023-02-11T00:27:38.744Z,100380.19
2023-02-11T00:30:11.770Z,100381.63
2023-02-11T00:32:45.110Z,100388.72
2023-02-11T00:35:17.210Z,100383.72
2023-02-11T00:37:49.934Z,100390.97
2023-02-11T00:40:22.568Z,100391.63
2023-02-11T00:42:54.492Z,100386.75
2023-02-11T00:45:31.065Z,100379.81
2023-02-11T00:48:03.796Z,100369.47
2023-02-11T00:50:35.747Z,100355.81
2023-02-11T00:53:11.453Z,100366.03
2023-02-11T00:55:43.999Z,100370.88
2023-02-11T00:58:16.697Z,100376.75
2023-02-11T01:00:49.361Z,100372.56
2023-02-11T01:03:22.359Z,100377.13
2023-02-11T01:05:54.987Z,100381.97
2023-02-11T01:08:27.876Z,100386.06
2023-02-11T01:11:08.225Z,100390.56
2023-02-11T01:13:40.539Z,100397.16
2023-02-11T01:16:14.108Z,100399.44
2023-02-11T01:18:47.145Z,100393.41
2023-02-11T01:21:23.496Z,100391.16
2023-02-11T01:23:56.753Z,100396.34
2023-02-11T01:26:29.154Z,100395.47
2023-02-11T01:29:03.955Z,100388.94
2023-02-11T01:31:36.795Z,100391.66
2023-02-11T01:34:09.290Z,100398.03
2023-02-11T01:36:42.946Z,100391.13
2023-02-11T01:39:15.658Z,100392.84
2023-02-11T01:42:09.996Z,100393.31
2023-02-11T01:44:42.339Z,100389.69
2023-02-11T01:47:15.118Z,100382.28
2023-02-11T01:49:57.413Z,100383.34
2023-02-11T01:52:36.107Z,100381.66
2023-02-11T01:55:31.414Z,100379.38
2023-02-11T01:58:05.859Z,100383.03
2023-02-11T02:00:40.341Z,100370.97
2023-02-11T02:03:22.881Z,100368.19
2023-02-11T02:06:16.905Z,100370.25
2023-02-11T02:09:04.706Z,100370.25
2023-02-11T02:11:36.636Z,100362.16
2023-02-11T02:14:10.171Z,100362.84
2023-02-11T02:16:42.599Z,100366.81
2023-02-11T02:19:46.140Z,100365.44
2023-02-11T02:23:38.477Z,100358.34
2023-02-11T02:26:18.058Z,100353.34
2023-02-11T02:33:22.809Z,100332.66
2023-02-11T02:35:55.820Z,100331.97
2023-02-11T02:39:06.777Z,100328.72
2023-02-11T02:41:39.972Z,100322.31
2023-02-11T02:44:12.150Z,100318.69
2023-02-11T02:46:44.920Z,100313.34
2023-02-11T02:49:17.717Z,100319.34
2023-02-11T02:52:08.488Z,100316.75
2023-02-11T02:55:09.640Z,100312.97
2023-02-11T02:58:25.094Z,100311.06
2023-02-11T03:01:45.754Z,100308.47
2023-02-11T03:04:53.460Z,100312.09
2023-02-11T03:07:42.197Z,100307.28
2023-02-11T03:10:21.608Z,100305.19
2023-02-11T03:12:56.369Z,100298.13
2023-02-11T03:15:32.660Z,100295.91
2023-02-11T03:18:10.319Z,100296.25
2023-02-11T03:20:47.493Z,100287.28
2023-02-11T03:23:29.013Z,100281.91
2023-02-11T03:26:41.902Z,100266.00
2023-02-11T03:29:36.230Z,100271.34
2023-02-11T03:32:34.969Z,100279.66
2023-02-11T03:35:16.142Z,100272.59
2023-02-11T03:38:07.080Z,100262.03
2023-02-11T03:40:42.863Z,100261.53
2023-02-11T03:43:30.334Z,100274.09
2023-02-11T03:46:04.292Z,100267.03
2023-02-11T03:48:44.699Z,100268.13
2023-02-11T03:51:18.034Z,100275.22
2023-02-11T03:53:53.100Z,100270.69
2023-02-11T03:56:31.520Z,100269.31
2023-02-11T03:59:21.824Z,100278.13
2023-02-11T04:04:48.338Z,100264.16
2023-02-11T04:07:20.736Z,100258.09
2023-02-11T04:09:53.396Z,100245.84
2023-02-11T04:12:26.073Z,100249.63
2023-02-11T04:14:57.976Z,100253.75
2023-02-11T04:17:30.830Z,100265.81
2023-02-11T04:20:02.820Z,100268.78
2023-02-11T04:22:57.321Z,100283.97
2023-02-11T04:25:52.071Z,100274.81
2023-02-11T04:28:24.559Z,100280.50
2023-02-11T04:30:57.508Z,100282.44
2023-02-11T04:33:30.232Z,100288.31
2023-02-11T04:36:02.121Z,100293.84
2023-02-11T04:38:35.492Z,100298.81
2023-02-11T04:41:07.449Z,100298.66
2023-02-11T04:43:40.330Z,100299.69
2023-02-11T04:46:12.892Z,100311.94
2023-02-11T04:48:45.321Z,100319.88
2023-02-11T04:51:17.357Z,100317.47
2023-02-11T04:53:50.126Z,100315.53
2023-02-11T04:56:23.494Z,100319.53
2023-02-11T04:58:55.874Z,100319.88
2023-02-11T05:01:28.330Z,100324.72
2023-02-11T05:04:00.456Z,100336.28
2023-02-11T05:06:33.231Z,100341.28
2023-02-11T05:09:05.209Z,100332.81
2023-02-11T05:11:39.818Z,100331.78
2023-02-11T05:14:11.706Z,100330.38
2023-02-11T05:16:44.502Z,100325.91
2023-02-11T05:19:17.425Z,100325.59
2023-02-11T05:22:01.624Z,100324.88
2023-02-11T05:24:35.363Z,100308.31
2023-02-11T05:27:08.570Z,100317.09
2023-02-11T05:29:40.999Z,100323.84
2023-02-11T05:32:13.367Z,100299.34
2023-02-11T05:34:45.335Z,100280.53
2023-02-11T05:37:20.819Z,100285.47
2023-02-11T05:39:53.205Z,100273.66
2023-02-11T05:42:26.382Z,100275.00
2023-02-11T05:44:58.383Z,100275.34
2023-02-11T05:47:31.245Z,100267.38
2023-02-11T05:50:06.950Z,100262.22
2023-02-11T05:52:39.312Z,100270.13
2023-02-11T05:55:12.153Z,100282.72
2023-02-11T05:57:45.022Z,100285.28
2023-02-11T06:00:18.274Z,100284.94
2023-02-11T06:03:12.546Z,100283.03
2023-02-11T06:08:39.694Z,100280.53
2023-02-11T06:14:04.776Z,100262.78
2023-02-11T06:16:37.576Z,100247.25
2023-02-11T06:19:10.010Z,100247.78
2023-02-11T06:21:44.294Z,100244.97
2023-02-11T06:24:24.659Z,100255.81
2023-02-11T06:27:09.251Z,100249.41
2023-02-11T06:29:42.056Z,100236.16
2023-02-11T06:32:36.886Z,100235.28
2023-02-11T06:35:09.488Z,100233.06
2023-02-11T06:37:43.520Z,100230.44
2023-02-11T06:40:16.638Z,100233.59
2023-02-11T06:42:48.618Z,100229.66
2023-02-11T06:45:21.227Z,100223.09
2023-02-11T06:47:53.371Z,100222.69
2023-02-11T06:50:28.692Z,100219.78
2023-02-11T06:53:01.275Z,100230.94
2023-02-11T06:55:35.925Z,100222.19
2023-02-11T06:58:08.594Z,100226.84
2023-02-11T07:00:41.672Z,100212.38
2023-02-11T07:03:13.737Z,100216.00
2023-02-11T07:05:46.960Z,100213.94
2023-02-11T07:08:38.533Z,100211.34
2023-02-11T07:11:24.663Z,100215.78
2023-02-11T07:14:02.229Z,100228.91
2023-02-11T07:16:35.869Z,100237.00
2023-02-11T07:19:08.609Z,100250.44
2023-02-11T07:21:40.934Z,100257.47
2023-02-11T07:24:13.876Z,100266.88
2023-02-11T07:26:47.451Z,100269.25
2023-02-11T07:29:19.873Z,100263.41
2023-02-11T07:31:52.248Z,100279.56
2023-02-11T07:34:24.720Z,100286.59
2023-02-11T07:36:59.181Z,100290.81
2023-02-11T07:39:31.509Z,100297.84
2023-02-11T07:42:04.716Z,100299.25
2023-02-11T07:47:30.186Z,100309.13
2023-02-11T07:50:03.048Z,100306.91
2023-02-11T07:52:38.877Z,100328.13
2023-02-11T07:55:11.554Z,100313.03
2023-02-11T07:57:44.374Z,100316.75
2023-02-11T08:00:19.383Z,100323.59
2023-02-11T08:02:54.479Z,100322.50
2023-02-11T08:05:26.413Z,100328.50
2023-02-11T08:07:59.170Z,100315.06
2023-02-11T08:10:32.880Z,100321.03
2023-02-11T08:13:05.202Z,100327.88
2023-02-11T08:15:37.538Z,100327.22
2023-02-11T08:18:09.414Z,100325.50
2023-02-11T08:20:42.501Z,100328.50
2023-02-11T08:23:14.430Z,100319.47
2023-02-11T08:25:47.207Z,100326.66
2023-02-11T08:28:19.594Z,100320.94
2023-02-11T08:30:51.893Z,100316.66
2023-02-11T08:33:24.899Z,100318.03
2023-02-11T08:35:57.605Z,100330.44
2023-02-11T08:38:30.875Z,100322.38
2023-02-11T08:41:03.648Z,100320.78
2023-02-11T08:43:37.326Z,100322.53
2023-02-11T08:46:13.908Z,100320.41
2023-02-11T08:48:47.499Z,100320.44
2023-02-11T08:51:31.934Z,100316.94
2023-02-11T08:54:04.366Z,100316.56
2023-02-11T08:56:39.311Z,100314.94
2023-02-11T08:59:15.084Z,100305.50
2023-02-11T09:01:48.090Z,100301.00
2023-02-11T09:04:20.315Z,100298.72
2023-02-11T09:06:53.524Z,100308.94
2023-02-11T09:09:28.760Z,100311.31
2023-02-11T09:12:01.450Z,100311.09
2023-02-11T09:14:35.441Z,100302.28
2023-02-11T09:17:07.440Z,100309.31
2023-02-11T09:22:33.633Z,100303.94
2023-02-11T09:25:07.216Z,100318.38
2023-02-11T09:27:40.192Z,100316.13
2023-02-11T09:30:12.916Z,100317.53
2023-02-11T09:32:45.760Z,100313.84
2023-02-11T09:35:18.314Z,100316.94
2023-02-11T09:37:51.721Z,100316.00
2023-02-11T09:40:24.240Z,100312.31
2023-02-11T09:43:44.313Z,100323.16
2023-02-11T09:46:18.167Z,100321.88
2023-02-11T09:48:57.914Z,100319.53
2023-02-11T09:51:36.094Z,100319.41
2023-02-11T09:54:20.160Z,100312.34
2023-02-11T09:56:52.135Z,100310.19
2023-02-11T09:59:24.500Z,100304.50
2023-02-11T10:02:05.157Z,100295.22
2023-02-11T10:05:12.779Z,100297.78
2023-02-11T10:08:22.757Z,100294.00
2023-02-11T10:11:05.885Z,100294.72
2023-02-11T10:13:53.279Z,100300.06
2023-02-11T10:17:14.689Z,100322.34
2023-02-11T10:19:57.734Z,100327.09
2023-02-11T10:22:50.398Z,100322.00
2023-02-11T10:25:54.488Z,100315.03
2023-02-11T10:28:33.275Z,100317.78
2023-02-11T10:31:15.893Z,100309.19
2023-02-11T10:34:13.079Z,100308.16
2023-02-11T10:36:45.777Z,100307.03
2023-02-11T10:39:24.897Z,100303.25
2023-02-11T10:42:06.721Z,100302.78
2023-02-11T10:44:46.663Z,100309.69
2023-02-11T10:47:24.976Z,100306.84
2023-02-11T10:50:03.809Z,100298.84
2023-02-11T10:52:36.186Z,100282.09
2023-02-11T10:55:22.591Z,100288.63
2023-02-11T10:58:01.509Z,100277.66
2023-02-11T11:00:37.339Z,100289.91
2023-02-11T11:03:23.392Z,100279.88
2023-02-11T11:06:05.644Z,100279.69
2023-02-11T11:08:44.274Z,100274.50
2023-02-11T11:11:26.588Z,100273.94
2023-02-11T11:14:03.747Z,100274.75
2023-02-11T11:16:37.723Z,100267.69
2023-02-11T11:19:09.969Z,100266.00
2023-02-11T11:21:56.432Z,100270.81
2023-02-11T11:24:45.005Z,100263.44
2023-02-11T11:27:25.144Z,100267.41
2023-02-11T11:29:57.806Z,100256.47
2023-02-11T11:32:33.666Z,100256.06
2023-02-11T11:35:25.470Z,100263.66
2023-02-11T11:38:02.328Z,100250.78
2023-02-11T11:40:35.994Z,100236.53
2023-02-11T11:43:14.562Z,100237.06
2023-02-11T11:45:56.364Z,100223.75
2023-02-11T11:48:47.526Z,100230.38
2023-02-11T11:51:19.902Z,100217.53
2023-02-11T11:54:18.395Z,100222.50
2023-02-11T11:57:18.965Z,100219.81
2023-02-11T11:59:51.300Z,100215.34
2023-02-11T12:03:11.363Z,100217.25
2023-02-11T12:06:09.648Z,100208.53
2023-02-11T12:09:25.875Z,100198.06
2023-02-11T12:12:27.540Z,100188.66
2023-02-11T12:15:20.503Z,100189.59
2023-02-11T12:18:14.606Z,100195.66
2023-02-11T12:21:13.288Z,100193.31
2023-02-11T12:24:17.421Z,100183.72
2023-02-11T12:27:36.651Z,100182.84
2023-02-11T12:30:33.865Z,100187.47
2023-02-11T12:33:36.160Z,100181.91
2023-02-11T12:36:21.707Z,100173.00
2023-02-11T12:39:37.424Z,100177.38
2023-02-11T12:43:02.533Z,100182.22
2023-02-11T12:45:59.164Z,100167.47
2023-02-11T12:49:02.182Z,100179.81
2023-02-11T12:52:18.874Z,100182.09
2023-02-11T12:55:23.146Z,100178.31
2023-02-11T12:57:59.081Z,100180.19
2023-02-11T13:00:48.785Z,100176.16
2023-02-11T13:03:47.099Z,100172.09
2023-02-11T13:06:28.309Z,100173.34
2023-02-11T13:09:05.057Z,100172.69
2023-02-11T13:11:45.022Z,100178.09
2023-02-11T13:14:32.718Z,100181.50
2023-02-11T13:17:18.714Z,100170.34
2023-02-11T13:20:01.608Z,100172.66
2023-02-11T13:22:44.646Z,100175.81
2023-02-11T13:25:23.436Z,100165.81
2023-02-11T13:28:45.908Z,100170.31
2023-02-11T13:31:20.319Z,100178.94
2023-02-11T13:33:53.287Z,100166.34
2023-02-11T13:36:28.696Z,100171.25
2023-02-11T13:39:06.906Z,100169.63
2023-02-11T13:41:41.324Z,100168.59
2023-02-11T13:44:22.576Z,100166.88
2023-02-11T13:47:03.269Z,100168.81
2023-02-11T13:49:51.175Z,100161.59
2023-02-11T13:52:31.216Z,100154.16
2023-02-11T13:55:24.632Z,100157.78
2023-02-11T13:58:08.802Z,100157.13
2023-02-11T14:00:52.292Z,100160.16
2023-02-11T14:03:52.606Z,100161.19
2023-02-11T14:06:48.147Z,100150.66
2023-02-11T14:09:23.436Z,100134.56
2023-02-11T14:12:31.892Z,100137.97
2023-02-11T14:15:07.943Z,100126.31
2023-02-11T14:17:40.424Z,100127.59
2023-02-11T14:20:39.786Z,100126.97
2023-02-11T14:23:27.563Z,100125.41
2023-02-11T14:26:21.505Z,100117.94
2023-02-11T14:29:40.992Z,100118.19
2023-02-11T14:32:53.119Z,100114.34
2023-02-11T14:36:00.993Z,100116.22
2023-02-11T14:39:09.989Z,100117.19
2023-02-11T14:41:45.348Z,100109.75
2023-02-11T14:44:28.311Z,100111.88
2023-02-11T14:47:01.017Z,100117.50
2023-02-11T14:49:39.854Z,100110.31
2023-02-11T14:52:31.614Z,100116.28
2023-02-11T14:55:18.847Z,100124.66
2023-02-11T14:58:19.092Z,100119.09
2023-02-11T15:01:01.427Z,100115.84
2023-02-11T15:03:40.370Z,100132.47
2023-02-11T15:06:25.482Z,100126.59
2023-02-11T15:09:41.729Z,100136.63
2023-02-11T15:12:26.821Z,100136.28
2023-02-11T15:15:01.041Z,100138.94
2023-02-11T15:17:33.106Z,100136.06
2023-02-11T15:20:06.881Z,100138.63
2023-02-11T15:22:39.356Z,100145.31
2023-02-11T15:25:17.583Z,100142.38
2023-02-11T15:27:53.934Z,100144.06
2023-02-11T15:30:31.377Z,100137.66
2023-02-11T15:33:06.781Z,100140.66
2023-02-11T15:35:41.391Z,100146.34
2023-02-11T15:38:14.215Z,100134.25
2023-02-11T15:41:38.739Z,100143.31
2023-02-11T15:44:32.329Z,100136.28
2023-02-11T15:47:11.850Z,100147.22
2023-02-11T15:49:45.837Z,100146.88
2023-02-11T15:52:26.084Z,100137.53
2023-02-11T15:55:01.668Z,100138.53
2023-02-11T15:57:34.748Z,100139.28
2023-02-11T16:00:08.188Z,100140.75
2023-02-11T16:02:46.704Z,100134.81
2023-02-11T16:05:37.137Z,100143.22
2023-02-11T16:08:42.084Z,100139.94
2023-02-11T16:11:35.122Z,100144.31
2023-02-11T16:14:37.504Z,100145.59
2023-02-11T16:17:12.537Z,100151.72
2023-02-11T16:19:48.159Z,100148.75
2023-02-11T16:22:26.287Z,100154.28
2023-02-11T16:25:00.274Z,100159.81
2023-02-11T16:27:42.088Z,100155.59
2023-02-11T16:30:34.590Z,100157.94
2023-02-11T16:33:06.585Z,100154.31
2023-02-11T16:35:39.017Z,100166.97
2023-02-11T16:38:10.910Z,100167.03
2023-02-11T16:40:44.875Z,100169.88
2023-02-11T16:43:20.663Z,100175.72
2023-02-11T16:45:53.285Z,100177.09
2023-02-11T16:48:25.551Z,100184.31
2023-02-11T16:50:58.193Z,100181.88
2023-02-11T16:53:30.662Z,100193.31
2023-02-11T16:56:03.038Z,100192.22
2023-02-11T16:58:35.044Z,100196.88
2023-02-11T17:01:07.905Z,100195.91
2023-02-11T17:03:40.755Z,100194.19
2023-02-11T17:06:14.283Z,100196.50
2023-02-11T17:08:46.288Z,100207.75
2023-02-11T17:11:20.143Z,100198.22
2023-02-11T17:13:52.468Z,100203.88
2023-02-11T17:16:25.464Z,100216.31
2023-02-11T17:18:57.413Z,100209.84
2023-02-11T17:21:31.869Z,100216.50
2023-02-11T17:24:04.385Z,100219.72
2023-02-11T17:26:38.223Z,100218.91
2023-02-11T17:29:16.671Z,100223.00
2023-02-11T17:31:49.651Z,100215.94
2023-02-11T17:34:22.921Z,100215.94
2023-02-11T17:36:55.428Z,100218.19
2023-02-11T17:39:27.935Z,100218.25
2023-02-11T17:42:00.661Z,100224.22
2023-02-11T17:44:34.006Z,100225.34
2023-02-11T17:47:06.327Z,100224.88
2023-02-11T17:49:39.029Z,100220.44
2023-02-11T17:52:11.797Z,100226.44
2023-02-11T17:54:44.213Z,100226.16
2023-02-11T17:57:16.595Z,100233.09
2023-02-11T17:59:48.573Z,100229.91
2023-02-11T18:02:21.070Z,100227.59
2023-02-11T18:04:55.433Z,100233.28
2023-02-11T18:07:27.826Z,100231.66
2023-02-11T18:09:59.776Z,100230.72
2023-02-11T18:12:32.124Z,100232.41
2023-02-11T18:15:04.507Z,100228.84
2023-02-11T18:17:36.887Z,100222.34
2023-02-11T18:20:09.896Z,100230.78
2023-02-11T18:22:44.556Z,100234.94
2023-02-11T18:25:17.414Z,100236.38
2023-02-11T18:27:49.745Z,100243.75
2023-02-11T18:30:22.367Z,100243.50
2023-02-11T18:32:57.875Z,100243.94
2023-02-11T18:35:29.853Z,100228.81
2023-02-11T18:38:02.300Z,100233.66
2023-02-11T18:40:34.666Z,100232.16
2023-02-11T18:43:07.320Z,100241.78
2023-02-11T18:45:44.270Z,100241.66
2023-02-11T18:48:17.700Z,100239.06
2023-02-11T18:50:50.114Z,100228.53
2023-02-11T18:53:23.720Z,100234.16
2023-02-11T18:55:56.134Z,100236.22
2023-02-11T18:58:28.087Z,100236.06
2023-02-11T19:01:00.575Z,100238.97
2023-02-11T19:03:32.492Z,100236.78
2023-02-11T19:06:05.361Z,100249.94
2023-02-11T19:08:37.289Z,100250.53
2023-02-11T19:11:10.146Z,100256.13
2023-02-11T19:13:42.133Z,100256.81
2023-02-11T19:16:17.007Z,100259.84
2023-02-11T19:18:49.068Z,100258.91
2023-02-11T19:21:21.578Z,100253.81
2023-02-11T19:23:53.514Z,100256.81
2023-02-11T19:26:26.825Z,100262.50
2023-02-11T19:28:59.131Z,100258.94
2023-02-11T19:31:33.945Z,100265.34
2023-02-11T19:34:07.562Z,100265.53
2023-02-11T19:36:40.728Z,100271.16
2023-02-11T19:39:13.117Z,100278.03
2023-02-11T19:41:45.708Z,100276.88
2023-02-11T19:44:18.388Z,100278.19
2023-02-11T19:46:53.008Z,100279.25
2023-02-11T19:49:26.326Z,100271.03
2023-02-11T19:51:59.068Z,100275.50
2023-02-11T19:54:31.123Z,100273.56
2023-02-11T19:57:03.545Z,100276.44
2023-02-11T19:59:35.420Z,100268.63
2023-02-11T20:02:08.341Z,100269.31
2023-02-11T20:04:40.291Z,100273.41
2023-02-11T20:07:12.804Z,100265.44
2023-02-11T20:09:44.811Z,100265.16
2023-02-11T20:12:17.949Z,100268.16
2023-02-11T20:14:49.894Z,100262.94
2023-02-11T20:17:22.410Z,100259.91
2023-02-11T20:19:54.325Z,100254.75
2023-02-11T20:22:26.768Z,100252.84
2023-02-11T20:24:58.691Z,100249.59
2023-02-11T20:27:32.393Z,100243.97
2023-02-11T20:30:05.381Z,100243.41
2023-02-11T20:32:38.856Z,100244.25
2023-02-11T20:35:10.874Z,100242.47
2023-02-11T20:37:44.296Z,100248.63
2023-02-11T20:40:17.338Z,100237.97
2023-02-11T20:42:49.958Z,100241.25
2023-02-11T20:45:22.956Z,100236.75
2023-02-11T20:47:55.420Z,100241.53
2023-02-11T20:50:27.358Z,100238.94
2023-02-11T20:52:59.819Z,100243.19
2023-02-11T20:55:31.928Z,100237.44
2023-02-11T20:58:05.786Z,100245.53
2023-02-11T21:00:37.827Z,100244.31
2023-02-11T21:03:10.640Z,100246.91
2023-02-11T21:05:42.606Z,100241.84
2023-02-11T21:08:14.989Z,100241.84
2023-02-11T21:10:48.509Z,100244.47
2023-02-11T21:13:20.975Z,100252.94
2023-02-11T21:15:57.375Z,100252.28
2023-02-11T21:18:30.166Z,100258.28
2023-02-11T21:21:02.272Z,100265.97
2023-02-11T21:23:35.977Z,100273.66
2023-02-11T21:26:08.822Z,100269.38
2023-02-11T21:28:41.503Z,100264.03
2023-02-11T21:31:27.157Z,100263.75
2023-02-11T21:33:59.856Z,100263.59
2023-02-11T21:36:32.005Z,100262.09
2023-02-11T21:39:05.872Z,100259.09
2023-02-11T21:41:37.873Z,100262.94
2023-02-11T21:44:10.098Z,100272.94
2023-02-11T21:46:42.100Z,100273.72
2023-02-11T21:49:14.625Z,100275.06
2023-02-11T21:51:46.966Z,100274.72
2023-02-11T21:54:20.343Z,100287.50
2023-02-11T21:56:52.447Z,100300.16
2023-02-11T21:59:24.823Z,100297.50
2023-02-11T22:01:56.851Z,100297.28
2023-02-11T22:04:29.290Z,100308.56
2023-02-11T22:07:02.887Z,100312.63
2023-02-11T22:09:35.252Z,100307.13
2023-02-11T22:12:11.257Z,100299.53
2023-02-11T22:14:43.892Z,100302.25
2023-02-11T22:17:16.300Z,100299.97
2023-02-11T22:19:49.058Z,100304.09
2023-02-11T22:22:21.248Z,100298.63
2023-02-11T22:24:54.336Z,100302.41
2023-02-11T22:27:26.302Z,100304.22
2023-02-11T22:29:58.728Z,100297.94
2023-02-11T22:32:30.710Z,100302.47
2023-02-11T22:35:03.187Z,100290.84
2023-02-11T22:37:35.131Z,100293.81
2023-02-11T22:40:08.483Z,100293.38
2023-02-11T22:42:40.447Z,100294.28
2023-02-11T22:45:13.971Z,100296.44
2023-02-11T22:47:45.902Z,100293.22
2023-02-11T22:50:19.836Z,100312.69
2023-02-11T22:52:51.729Z,100309.78
2023-02-11T22:55:24.085Z,100302.28
2023-02-11T22:57:56.054Z,100306.00
2023-02-11T23:00:32.204Z,100306.06
2023-02-11T23:03:05.650Z,100298.81
2023-02-11T23:05:42.705Z,100311.03
2023-02-11T23:08:14.695Z,100305.66
2023-02-11T23:10:47.266Z,100305.44
2023-02-11T23:13:19.431Z,100309.28
2023-02-11T23:15:51.801Z,100313.69
2023-02-11T23:18:23.695Z,100308.66
2023-02-11T23:20:56.453Z,100325.06
2023-02-11T23:23:28.472Z,100322.03
2023-02-11T23:26:01.433Z,100321.84
2023-02-11T23:28:33.416Z,100322.56
2023-02-11T23:31:38.114Z,100320.00
2023-02-11T23:34:10.727Z,100320.91
2023-02-11T23:36:44.480Z,100316.38
2023-02-11T23:39:17.129Z,100316.03
2023-02-11T23:41:52.720Z,100311.84
2023-02-11T23:44:27.993Z,100310.16
2023-02-11T23:47:00.358Z,100310.53
2023-02-11T23:49:32.320Z,100309.41
2023-02-11T23:52:04.708Z,100305.63
2023-02-11T23:54:36.673Z,100291.03
2023-02-11T23:57:09.058Z,100287.31
2023-02-11T23:59:43.172Z,100274.59
